createdAt,value
2022-10-26T00:02:43.393Z,8.56
2022-10-26T00:12:49.660Z,8.42
2022-10-26T00:22:51.743Z,8.44
2022-10-26T00:32:53.719Z,8.26
2022-10-26T00:42:55.477Z,8.24
2022-10-26T00:52:59.700Z,8.10
2022-10-26T01:03:05.613Z,8.09
2022-10-26T01:13:07.439Z,7.98
2022-10-26T01:23:26.271Z,7.96
2022-10-26T01:33:38.496Z,7.88
2022-10-26T01:44:05.131Z,7.92
2022-10-26T01:54:17.771Z,7.89
2022-10-26T02:04:33.395Z,7.72
2022-10-26T02:14:52.750Z,7.75
2022-10-26T02:24:55.841Z,7.66
2022-10-26T02:35:02.038Z,7.56
2022-10-26T02:45:09.661Z,7.49
2022-10-26T02:55:18.804Z,7.54
2022-10-26T03:05:24.476Z,7.59
2022-10-26T03:15:26.180Z,7.56
2022-10-26T03:25:28.015Z,7.95
2022-10-26T03:35:31.005Z,8.13
2022-10-26T03:45:32.578Z,8.25
2022-10-26T03:55:40.022Z,8.19
2022-10-26T04:05:41.636Z,8.11
2022-10-26T04:15:43.482Z,7.94
2022-10-26T04:25:45.322Z,7.81
2022-10-26T04:35:48.199Z,7.73
2022-10-26T04:45:49.827Z,7.74
2022-10-26T04:55:59.570Z,7.68
2022-10-26T05:06:01.189Z,7.57
2022-10-26T05:16:02.842Z,7.28
2022-10-26T05:26:04.922Z,7.17
2022-10-26T05:36:07.190Z,7.17
2022-10-26T05:46:09.024Z,7.29
2022-10-26T05:56:38.242Z,7.47
2022-10-26T06:06:44.739Z,7.67
2022-10-26T06:17:03.470Z,7.85
2022-10-26T06:27:29.056Z,8.17
2022-10-26T06:37:31.796Z,8.58
2022-10-26T06:47:54.431Z,9.04
2022-10-26T06:57:56.108Z,9.37
2022-10-26T07:07:57.726Z,9.69
2022-10-26T07:17:59.376Z,10.10
2022-10-26T07:28:01.696Z,10.59
2022-10-26T07:38:04.524Z,11.15
2022-10-26T07:48:13.082Z,12.22
2022-10-26T07:58:23.629Z,13.05
2022-10-26T08:08:25.235Z,13.20
2022-10-26T08:18:27.990Z,13.50
2022-10-26T08:28:30.440Z,14.17
2022-10-26T08:38:34.010Z,15.00
2022-10-26T08:48:38.669Z,15.38
2022-10-26T08:58:47.155Z,15.94
2022-10-26T09:09:08.466Z,16.46
2022-10-26T09:19:47.249Z,16.67
2022-10-26T09:29:53.132Z,17.45
2022-10-26T09:40:20.692Z,18.62
2022-10-26T09:50:31.524Z,17.78
2022-10-26T10:10:37.460Z,18.88
2022-10-26T10:20:39.269Z,22.13
2022-10-26T10:30:53.306Z,17.46
2022-10-26T10:41:02.703Z,15.78
2022-10-26T10:51:15.490Z,17.46
2022-10-26T11:01:22.683Z,17.61
2022-10-26T11:11:32.363Z,17.27
2022-10-26T11:21:38.299Z,16.79
2022-10-26T11:31:51.958Z,17.02
2022-10-26T11:42:01.350Z,18.46
2022-10-26T11:52:33.748Z,19.25
2022-10-26T12:12:53.674Z,17.84
2022-10-26T12:22:55.443Z,18.59
2022-10-26T12:33:48.860Z,18.58
2022-10-26T12:43:50.695Z,21.73
2022-10-26T12:54:04.362Z,19.48
2022-10-26T13:04:19.054Z,18.09
2022-10-26T13:14:29.462Z,17.77
2022-10-26T13:24:34.999Z,17.50
2022-10-26T13:34:42.624Z,17.56
2022-10-26T13:44:53.135Z,17.06
2022-10-26T13:55:02.764Z,16.77
2022-10-26T14:05:05.799Z,16.45
2022-10-26T14:15:09.202Z,16.40
2022-10-26T14:25:42.911Z,16.26
2022-10-26T14:35:50.783Z,16.22
2022-10-26T14:45:54.547Z,16.17
2022-10-26T14:55:57.113Z,15.94
2022-10-26T15:05:58.668Z,15.81
2022-10-26T15:16:20.304Z,15.65
2022-10-26T15:26:21.950Z,15.43
2022-10-26T15:36:24.572Z,15.32
2022-10-26T15:46:30.155Z,15.20
2022-10-26T15:56:39.190Z,15.05
2022-10-26T16:06:42.786Z,14.99
2022-10-26T16:16:44.384Z,14.84
2022-10-26T16:26:51.825Z,14.72
2022-10-26T16:36:53.535Z,14.73
2022-10-26T16:46:56.692Z,14.72
2022-10-26T16:56:58.500Z,14.72
2022-10-26T17:07:00.346Z,14.66
2022-10-26T17:17:02.068Z,14.62
2022-10-26T17:27:06.082Z,14.55
2022-10-26T17:37:08.311Z,14.52
2022-10-26T17:47:10.616Z,14.46
2022-10-26T17:57:13.081Z,14.42
2022-10-26T18:07:15.480Z,14.44
2022-10-26T18:17:18.709Z,14.17
2022-10-26T18:27:21.368Z,13.98
2022-10-26T18:37:23.453Z,13.66
2022-10-26T18:47:25.543Z,13.42
2022-10-26T18:57:29.379Z,13.21
2022-10-26T19:07:35.408Z,13.16
2022-10-26T19:28:11.231Z,12.59
2022-10-26T19:38:13.958Z,12.31
2022-10-26T19:48:16.737Z,12.13
2022-10-26T19:58:21.414Z,12.00
2022-10-26T20:08:24.432Z,11.90
2022-10-26T20:18:26.459Z,11.82
2022-10-26T20:28:30.456Z,11.74
2022-10-26T20:38:34.189Z,11.65
2022-10-26T20:48:37.578Z,11.61
2022-10-26T20:59:00.476Z,11.58
2022-10-26T21:09:03.103Z,11.57
2022-10-26T21:19:05.172Z,11.70
2022-10-26T21:29:07.979Z,11.80
2022-10-26T21:39:13.113Z,11.78
2022-10-26T21:49:14.897Z,11.82
2022-10-26T21:59:16.467Z,11.89
2022-10-26T22:09:18.223Z,12.01
2022-10-26T22:19:20.343Z,12.05
2022-10-26T22:29:22.121Z,12.09
2022-10-26T22:39:24.244Z,12.04
2022-10-26T22:49:26.052Z,11.86
2022-10-26T22:59:27.612Z,11.68
2022-10-26T23:09:31.274Z,11.53
2022-10-26T23:19:32.939Z,11.20
2022-10-26T23:40:04.602Z,10.93
2022-10-26T23:50:06.748Z,10.69
